Plymouth, MA

3:35 AM EDT on May 30, 2015 (GMT -0400)
KMAROCKL1 | | Change Station
CLOSE
Current Station
Personal Weather Station
Location: Plymouth, MA
Elevation: 110 ft
Nearby Weather Stations

Elev 110 ft 41.94 °N, 70.66 °W | Updated 4 minutes ago

Fog
Fog
60.7 °F
Feels Like 60.7 °F
N
2.0
Wind Variable Wind from East
Gusts 8.0 mph

Today
High -- | Low -- °F
--% Chance of Precip.
Yesterday
High -- | Low -- °F
Precip. -- in
5:11 AM 8:09 PM
Waxing Gibbous, 89% visible
Pressure 30.21 in
Visibility 0.2 miles
Clouds
Dew Point 60 °F
Humidity 97%
Rainfall 0.00 in
Snow Depth Not available.
UV 0.0 out of 12
Pollen 8.40 out of 12
Air Quality Not available.
Flu Activity Local Activity
SPECI KPYM 300701Z AUTO VRB03KT 1/4SM FG VV002 16/16 A3021 RMK AO2 T01560156

More Conditions Fewer Conditions

Pressure 30.21 in
Visibility 0.2 miles
Clouds
Dew Point 60 °F
Humidity 97%
Rainfall 0.00 in
Snow Depth Not available.
UV 0.0 out of 12
Pollen 8.40 out of 12
Air Quality Not available.
Flu Activity Local Activity
SPECI KPYM 300701Z AUTO VRB03KT 1/4SM FG VV002 16/16 A3021 RMK AO2 T01560156

More Conditions Fewer Conditions

10-Day Weather Forecast

Almanac

Astronomy

May. 30, 2015 Rise Set
Actual Time
Civil Twilight
Nautical Twilight
Astronomical Twilight
Moon
Length of Visible Light
Length of Day
Tomorrow will be .
, % of the Moon is Illuminated

Today's Extremes

State Highs State Lows

Community

WunderPhotos

Upload Photos

1,825,470 photos uploaded!

WunderBlogs® & News

Nearby

Air Quality

  Air Quality AQ Index Pollutant
Not available.

Snow Depth

Station Depth Elevation

Earthquake Activity

City Distance Mag. Time & Date
Minimum magnitude displayed is 2.5.

Coastal Water Temperatures

Place Temperature

Stations

Nearby Weather Stations

Station Location Temp. Windchill Dew Point Humidity Wind Precip. Elev Updated Type